sensor_id;sensor_type;location;lat;lon;timestamp;P1;durP1;ratioP1;P2;durP2;ratioP2
57635;SDS011;43465;50.728;4.160;2023-05-14T00:01:52;137.70;;;72.38;;
57635;SDS011;43465;50.728;4.160;2023-05-14T00:04:18;132.20;;;74.40;;
57635;SDS011;43465;50.728;4.160;2023-05-14T00:06:44;134.88;;;70.90;;
57635;SDS011;43465;50.728;4.160;2023-05-14T00:09:10;142.98;;;76.07;;
57635;SDS011;43465;50.728;4.160;2023-05-14T00:11:37;136.20;;;74.53;;
57635;SDS011;43465;50.728;4.160;2023-05-14T00:14:02;143.20;;;76.47;;
57635;SDS011;43465;50.728;4.160;2023-05-14T00:16:28;144.05;;;74.70;;
57635;SDS011;43465;50.728;4.160;2023-05-14T00:18:54;145.60;;;78.95;;
57635;SDS011;43465;50.728;4.160;2023-05-14T00:21:19;144.50;;;76.60;;
57635;SDS011;43465;50.728;4.160;2023-05-14T00:23:45;154.85;;;80.90;;
57635;SDS011;43465;50.728;4.160;2023-05-14T00:26:11;145.15;;;78.32;;
57635;SDS011;43465;50.728;4.160;2023-05-14T00:28:37;151.75;;;78.63;;
57635;SDS011;43465;50.728;4.160;2023-05-14T00:31:02;151.88;;;79.97;;
57635;SDS011;43465;50.728;4.160;2023-05-14T00:33:28;163.73;;;82.63;;
57635;SDS011;43465;50.728;4.160;2023-05-14T00:35:54;168.65;;;85.07;;
57635;SDS011;43465;50.728;4.160;2023-05-14T00:38:20;158.80;;;83.55;;
57635;SDS011;43465;50.728;4.160;2023-05-14T00:40:48;161.50;;;82.25;;
57635;SDS011;43465;50.728;4.160;2023-05-14T00:43:19;166.93;;;84.38;;
57635;SDS011;43465;50.728;4.160;2023-05-14T00:45:46;153.85;;;78.53;;
57635;SDS011;43465;50.728;4.160;2023-05-14T00:48:14;166.02;;;81.93;;
57635;SDS011;43465;50.728;4.160;2023-05-14T00:50:40;168.02;;;85.05;;
57635;SDS011;43465;50.728;4.160;2023-05-14T00:53:06;163.93;;;84.32;;
57635;SDS011;43465;50.728;4.160;2023-05-14T00:55:35;147.63;;;78.03;;
57635;SDS011;43465;50.728;4.160;2023-05-14T00:58:08;152.02;;;79.20;;
57635;SDS011;43465;50.728;4.160;2023-05-14T01:00:36;165.65;;;80.88;;
57635;SDS011;43465;50.728;4.160;2023-05-14T01:03:02;152.48;;;80.07;;
57635;SDS011;43465;50.728;4.160;2023-05-14T01:05:32;170.95;;;82.57;;
57635;SDS011;43465;50.728;4.160;2023-05-14T01:08:12;166.20;;;80.97;;
57635;SDS011;43465;50.728;4.160;2023-05-14T01:10:50;164.68;;;80.28;;
57635;SDS011;43465;50.728;4.160;2023-05-14T01:13:25;161.73;;;82.25;;
57635;SDS011;43465;50.728;4.160;2023-05-14T01:15:57;168.20;;;82.28;;
57635;SDS011;43465;50.728;4.160;2023-05-14T01:18:25;162.02;;;80.97;;
57635;SDS011;43465;50.728;4.160;2023-05-14T01:20:53;164.73;;;81.55;;
57635;SDS011;43465;50.728;4.160;2023-05-14T01:23:19;163.18;;;81.55;;
57635;SDS011;43465;50.728;4.160;2023-05-14T01:25:45;167.45;;;83.90;;
57635;SDS011;43465;50.728;4.160;2023-05-14T01:28:18;163.40;;;82.75;;
57635;SDS011;43465;50.728;4.160;2023-05-14T01:30:56;176.70;;;84.10;;
57635;SDS011;43465;50.728;4.160;2023-05-14T01:33:24;163.85;;;82.93;;
57635;SDS011;43465;50.728;4.160;2023-05-14T01:35:52;176.55;;;83.70;;
57635;SDS011;43465;50.728;4.160;2023-05-14T01:38:19;172.90;;;84.55;;
57635;SDS011;43465;50.728;4.160;2023-05-14T01:40:47;172.38;;;84.38;;
57635;SDS011;43465;50.728;4.160;2023-05-14T01:43:14;168.85;;;83.90;;
57635;SDS011;43465;50.728;4.160;2023-05-14T01:45:41;176.02;;;88.75;;
57635;SDS011;43465;50.728;4.160;2023-05-14T01:48:08;174.07;;;86.47;;
57635;SDS011;43465;50.728;4.160;2023-05-14T01:50:34;183.25;;;87.35;;
57635;SDS011;43465;50.728;4.160;2023-05-14T01:52:59;182.25;;;86.57;;
57635;SDS011;43465;50.728;4.160;2023-05-14T01:55:25;188.50;;;89.25;;
57635;SDS011;43465;50.728;4.160;2023-05-14T01:57:51;190.13;;;91.47;;
57635;SDS011;43465;50.728;4.160;2023-05-14T02:00:17;186.00;;;87.78;;
57635;SDS011;43465;50.728;4.160;2023-05-14T02:02:44;189.18;;;89.82;;
57635;SDS011;43465;50.728;4.160;2023-05-14T02:05:10;173.38;;;83.78;;
57635;SDS011;43465;50.728;4.160;2023-05-14T02:07:36;174.77;;;84.85;;
57635;SDS011;43465;50.728;4.160;2023-05-14T02:10:02;168.13;;;83.68;;
57635;SDS011;43465;50.728;4.160;2023-05-14T02:12:28;175.10;;;85.20;;
57635;SDS011;43465;50.728;4.160;2023-05-14T02:14:54;174.23;;;83.97;;
57635;SDS011;43465;50.728;4.160;2023-05-14T02:17:20;167.18;;;83.90;;
57635;SDS011;43465;50.728;4.160;2023-05-14T02:19:45;165.15;;;82.90;;
57635;SDS011;43465;50.728;4.160;2023-05-14T02:22:11;159.98;;;80.20;;
57635;SDS011;43465;50.728;4.160;2023-05-14T02:24:37;164.10;;;81.45;;
57635;SDS011;43465;50.728;4.160;2023-05-14T02:27:03;158.20;;;80.38;;
57635;SDS011;43465;50.728;4.160;2023-05-14T02:29:30;146.05;;;76.78;;
57635;SDS011;43465;50.728;4.160;2023-05-14T02:31:55;151.00;;;79.13;;
57635;SDS011;43465;50.728;4.160;2023-05-14T02:34:21;150.85;;;75.68;;
57635;SDS011;43465;50.728;4.160;2023-05-14T02:36:47;149.90;;;77.80;;
57635;SDS011;43465;50.728;4.160;2023-05-14T02:39:13;149.45;;;75.97;;
57635;SDS011;43465;50.728;4.160;2023-05-14T02:41:39;142.80;;;73.28;;
57635;SDS011;43465;50.728;4.160;2023-05-14T02:44:04;147.27;;;75.07;;
57635;SDS011;43465;50.728;4.160;2023-05-14T02:46:30;140.65;;;73.70;;
57635;SDS011;43465;50.728;4.160;2023-05-14T02:48:56;135.77;;;73.03;;
57635;SDS011;43465;50.728;4.160;2023-05-14T02:51:22;145.57;;;74.75;;
57635;SDS011;43465;50.728;4.160;2023-05-14T02:53:48;139.65;;;73.53;;
57635;SDS011;43465;50.728;4.160;2023-05-14T02:56:14;138.30;;;74.45;;
57635;SDS011;43465;50.728;4.160;2023-05-14T02:58:39;137.25;;;70.97;;
57635;SDS011;43465;50.728;4.160;2023-05-14T03:01:05;142.88;;;72.80;;
57635;SDS011;43465;50.728;4.160;2023-05-14T03:03:31;137.13;;;71.22;;
57635;SDS011;43465;50.728;4.160;2023-05-14T03:05:57;137.32;;;72.03;;
57635;SDS011;43465;50.728;4.160;2023-05-14T03:08:23;135.68;;;71.43;;
57635;SDS011;43465;50.728;4.160;2023-05-14T03:10:49;128.98;;;67.90;;
57635;SDS011;43465;50.728;4.160;2023-05-14T03:13:15;137.30;;;70.65;;
57635;SDS011;43465;50.728;4.160;2023-05-14T03:15:43;132.10;;;69.25;;
57635;SDS011;43465;50.728;4.160;2023-05-14T03:18:09;139.00;;;70.60;;
57635;SDS011;43465;50.728;4.160;2023-05-14T03:20:35;136.05;;;70.38;;
57635;SDS011;43465;50.728;4.160;2023-05-14T03:23:00;130.70;;;67.68;;
57635;SDS011;43465;50.728;4.160;2023-05-14T03:25:26;139.57;;;70.97;;
57635;SDS011;43465;50.728;4.160;2023-05-14T03:27:52;124.65;;;66.57;;
57635;SDS011;43465;50.728;4.160;2023-05-14T03:30:17;130.15;;;67.85;;
57635;SDS011;43465;50.728;4.160;2023-05-14T03:32:43;133.85;;;69.28;;
57635;SDS011;43465;50.728;4.160;2023-05-14T03:35:09;135.77;;;69.88;;
57635;SDS011;43465;50.728;4.160;2023-05-14T03:37:35;130.68;;;69.53;;
57635;SDS011;43465;50.728;4.160;2023-05-14T03:40:00;132.95;;;69.28;;
57635;SDS011;43465;50.728;4.160;2023-05-14T03:42:26;135.00;;;71.25;;
57635;SDS011;43465;50.728;4.160;2023-05-14T03:44:52;130.57;;;69.85;;
57635;SDS011;43465;50.728;4.160;2023-05-14T03:47:17;136.13;;;69.05;;
57635;SDS011;43465;50.728;4.160;2023-05-14T03:49:43;130.13;;;68.50;;
57635;SDS011;43465;50.728;4.160;2023-05-14T03:52:08;142.80;;;70.15;;
57635;SDS011;43465;50.728;4.160;2023-05-14T03:54:34;125.32;;;66.28;;
57635;SDS011;43465;50.728;4.160;2023-05-14T03:57:00;135.45;;;70.88;;
57635;SDS011;43465;50.728;4.160;2023-05-14T03:59:26;132.10;;;68.35;;
57635;SDS011;43465;50.728;4.160;2023-05-14T04:01:52;136.98;;;70.40;;
57635;SDS011;43465;50.728;4.160;2023-05-14T04:04:20;135.70;;;69.78;;
57635;SDS011;43465;50.728;4.160;2023-05-14T04:06:45;138.23;;;69.88;;
57635;SDS011;43465;50.728;4.160;2023-05-14T04:09:11;135.63;;;69.95;;
57635;SDS011;43465;50.728;4.160;2023-05-14T04:11:36;132.35;;;68.80;;
57635;SDS011;43465;50.728;4.160;2023-05-14T04:14:02;127.25;;;67.57;;
57635;SDS011;43465;50.728;4.160;2023-05-14T04:16:31;123.40;;;65.57;;
57635;SDS011;43465;50.728;4.160;2023-05-14T04:18:56;126.22;;;66.90;;
57635;SDS011;43465;50.728;4.160;2023-05-14T04:21:22;121.60;;;66.35;;
57635;SDS011;43465;50.728;4.160;2023-05-14T04:23:48;118.75;;;64.72;;
57635;SDS011;43465;50.728;4.160;2023-05-14T04:26:14;122.25;;;64.55;;
57635;SDS011;43465;50.728;4.160;2023-05-14T04:28:40;116.03;;;63.30;;
57635;SDS011;43465;50.728;4.160;2023-05-14T04:31:05;116.25;;;65.05;;
57635;SDS011;43465;50.728;4.160;2023-05-14T04:33:31;123.00;;;65.10;;
57635;SDS011;43465;50.728;4.160;2023-05-14T04:35:57;117.93;;;64.20;;
57635;SDS011;43465;50.728;4.160;2023-05-14T04:38:22;108.10;;;60.90;;
57635;SDS011;43465;50.728;4.160;2023-05-14T04:40:48;104.75;;;60.95;;
57635;SDS011;43465;50.728;4.160;2023-05-14T04:43:14;102.82;;;61.08;;
57635;SDS011;43465;50.728;4.160;2023-05-14T04:45:40;104.80;;;59.55;;
57635;SDS011;43465;50.728;4.160;2023-05-14T04:48:07;99.63;;;56.65;;
57635;SDS011;43465;50.728;4.160;2023-05-14T04:50:33;103.15;;;57.40;;
57635;SDS011;43465;50.728;4.160;2023-05-14T04:52:59;98.20;;;56.80;;
57635;SDS011;43465;50.728;4.160;2023-05-14T04:55:24;99.70;;;56.85;;
57635;SDS011;43465;50.728;4.160;2023-05-14T04:57:50;109.15;;;59.50;;
57635;SDS011;43465;50.728;4.160;2023-05-14T05:00:16;109.78;;;62.10;;
57635;SDS011;43465;50.728;4.160;2023-05-14T05:02:42;105.45;;;60.83;;
57635;SDS011;43465;50.728;4.160;2023-05-14T05:05:07;104.78;;;60.38;;
57635;SDS011;43465;50.728;4.160;2023-05-14T05:07:33;96.35;;;57.00;;
57635;SDS011;43465;50.728;4.160;2023-05-14T05:09:59;96.63;;;56.97;;
57635;SDS011;43465;50.728;4.160;2023-05-14T05:12:25;100.63;;;59.58;;
57635;SDS011;43465;50.728;4.160;2023-05-14T05:14:54;100.30;;;60.25;;
57635;SDS011;43465;50.728;4.160;2023-05-14T05:17:21;99.07;;;58.03;;
57635;SDS011;43465;50.728;4.160;2023-05-14T05:19:47;99.88;;;58.53;;
57635;SDS011;43465;50.728;4.160;2023-05-14T05:22:12;94.13;;;58.17;;
57635;SDS011;43465;50.728;4.160;2023-05-14T05:24:38;91.70;;;56.45;;
57635;SDS011;43465;50.728;4.160;2023-05-14T05:27:04;93.63;;;55.10;;
57635;SDS011;43465;50.728;4.160;2023-05-14T05:29:30;87.63;;;53.53;;
57635;SDS011;43465;50.728;4.160;2023-05-14T05:31:55;92.57;;;54.92;;
57635;SDS011;43465;50.728;4.160;2023-05-14T05:34:21;98.95;;;57.90;;
57635;SDS011;43465;50.728;4.160;2023-05-14T05:36:47;97.57;;;57.80;;
57635;SDS011;43465;50.728;4.160;2023-05-14T05:39:12;90.90;;;55.33;;
57635;SDS011;43465;50.728;4.160;2023-05-14T05:41:38;89.55;;;55.17;;
57635;SDS011;43465;50.728;4.160;2023-05-14T05:44:04;99.35;;;57.05;;
57635;SDS011;43465;50.728;4.160;2023-05-14T05:46:30;98.55;;;55.95;;
57635;SDS011;43465;50.728;4.160;2023-05-14T05:48:55;96.53;;;57.00;;
57635;SDS011;43465;50.728;4.160;2023-05-14T05:51:21;104.80;;;58.05;;
57635;SDS011;43465;50.728;4.160;2023-05-14T05:53:47;106.35;;;58.95;;
57635;SDS011;43465;50.728;4.160;2023-05-14T05:56:12;115.35;;;61.38;;
57635;SDS011;43465;50.728;4.160;2023-05-14T05:58:38;114.38;;;60.28;;
57635;SDS011;43465;50.728;4.160;2023-05-14T06:01:04;103.25;;;60.30;;
57635;SDS011;43465;50.728;4.160;2023-05-14T06:03:30;114.63;;;62.33;;
57635;SDS011;43465;50.728;4.160;2023-05-14T06:05:56;120.38;;;65.00;;
57635;SDS011;43465;50.728;4.160;2023-05-14T06:08:21;112.97;;;63.28;;
57635;SDS011;43465;50.728;4.160;2023-05-14T06:10:47;115.60;;;63.05;;
57635;SDS011;43465;50.728;4.160;2023-05-14T06:13:13;118.88;;;61.05;;
57635;SDS011;43465;50.728;4.160;2023-05-14T06:15:38;137.35;;;66.82;;
57635;SDS011;43465;50.728;4.160;2023-05-14T06:18:04;124.15;;;65.57;;
57635;SDS011;43465;50.728;4.160;2023-05-14T06:20:30;131.52;;;68.78;;
57635;SDS011;43465;50.728;4.160;2023-05-14T06:22:55;137.27;;;68.07;;
57635;SDS011;43465;50.728;4.160;2023-05-14T06:25:21;138.43;;;70.28;;
57635;SDS011;43465;50.728;4.160;2023-05-14T06:27:47;133.23;;;65.75;;
57635;SDS011;43465;50.728;4.160;2023-05-14T06:30:12;137.10;;;63.95;;
57635;SDS011;43465;50.728;4.160;2023-05-14T06:32:38;125.03;;;64.03;;
57635;SDS011;43465;50.728;4.160;2023-05-14T06:35:04;132.57;;;62.90;;
57635;SDS011;43465;50.728;4.160;2023-05-14T06:37:30;142.57;;;66.13;;
57635;SDS011;43465;50.728;4.160;2023-05-14T06:39:56;134.32;;;65.80;;
57635;SDS011;43465;50.728;4.160;2023-05-14T06:42:22;151.70;;;70.80;;
57635;SDS011;43465;50.728;4.160;2023-05-14T06:44:47;171.52;;;77.35;;
57635;SDS011;43465;50.728;4.160;2023-05-14T06:47:13;164.73;;;78.47;;
57635;SDS011;43465;50.728;4.160;2023-05-14T06:49:39;179.13;;;81.35;;
57635;SDS011;43465;50.728;4.160;2023-05-14T06:52:04;187.43;;;84.45;;
57635;SDS011;43465;50.728;4.160;2023-05-14T06:54:30;185.05;;;82.32;;
57635;SDS011;43465;50.728;4.160;2023-05-14T06:56:56;181.27;;;80.85;;
57635;SDS011;43465;50.728;4.160;2023-05-14T06:59:22;188.15;;;82.65;;
57635;SDS011;43465;50.728;4.160;2023-05-14T07:01:48;196.68;;;84.95;;
57635;SDS011;43465;50.728;4.160;2023-05-14T07:04:13;192.43;;;85.97;;
57635;SDS011;43465;50.728;4.160;2023-05-14T07:06:39;184.05;;;84.43;;
57635;SDS011;43465;50.728;4.160;2023-05-14T07:09:05;184.20;;;80.60;;
57635;SDS011;43465;50.728;4.160;2023-05-14T07:11:31;180.93;;;83.82;;
57635;SDS011;43465;50.728;4.160;2023-05-14T07:13:57;174.27;;;80.70;;
57635;SDS011;43465;50.728;4.160;2023-05-14T07:16:23;166.35;;;77.82;;
57635;SDS011;43465;50.728;4.160;2023-05-14T07:18:49;171.57;;;80.43;;
57635;SDS011;43465;50.728;4.160;2023-05-14T07:21:15;169.02;;;80.35;;
57635;SDS011;43465;50.728;4.160;2023-05-14T07:23:40;163.30;;;75.13;;
57635;SDS011;43465;50.728;4.160;2023-05-14T07:26:06;158.13;;;77.30;;
57635;SDS011;43465;50.728;4.160;2023-05-14T07:28:32;165.40;;;77.25;;
57635;SDS011;43465;50.728;4.160;2023-05-14T07:30:59;161.30;;;75.90;;
57635;SDS011;43465;50.728;4.160;2023-05-14T07:33:24;161.48;;;77.78;;
57635;SDS011;43465;50.728;4.160;2023-05-14T07:35:51;148.68;;;74.55;;
57635;SDS011;43465;50.728;4.160;2023-05-14T07:38:18;145.48;;;74.00;;
57635;SDS011;43465;50.728;4.160;2023-05-14T07:40:44;137.32;;;69.15;;
57635;SDS011;43465;50.728;4.160;2023-05-14T07:43:11;139.65;;;70.18;;
57635;SDS011;43465;50.728;4.160;2023-05-14T07:45:36;142.77;;;70.63;;
57635;SDS011;43465;50.728;4.160;2023-05-14T07:48:05;134.10;;;66.68;;
57635;SDS011;43465;50.728;4.160;2023-05-14T07:50:30;135.98;;;67.03;;
57635;SDS011;43465;50.728;4.160;2023-05-14T07:52:56;137.43;;;67.25;;
57635;SDS011;43465;50.728;4.160;2023-05-14T07:55:22;142.55;;;71.07;;
57635;SDS011;43465;50.728;4.160;2023-05-14T07:57:47;135.98;;;69.38;;
57635;SDS011;43465;50.728;4.160;2023-05-14T08:00:13;127.70;;;67.45;;
57635;SDS011;43465;50.728;4.160;2023-05-14T08:02:40;125.13;;;65.72;;
57635;SDS011;43465;50.728;4.160;2023-05-14T08:05:07;121.85;;;64.38;;
57635;SDS011;43465;50.728;4.160;2023-05-14T08:07:33;122.07;;;63.72;;
57635;SDS011;43465;50.728;4.160;2023-05-14T08:09:59;100.50;;;58.28;;
57635;SDS011;43465;50.728;4.160;2023-05-14T08:12:25;94.22;;;56.22;;
57635;SDS011;43465;50.728;4.160;2023-05-14T08:14:51;94.75;;;56.10;;
57635;SDS011;43465;50.728;4.160;2023-05-14T08:17:17;102.68;;;58.50;;
57635;SDS011;43465;50.728;4.160;2023-05-14T08:19:43;103.20;;;59.95;;
57635;SDS011;43465;50.728;4.160;2023-05-14T08:22:08;102.57;;;59.08;;
57635;SDS011;43465;50.728;4.160;2023-05-14T08:24:34;113.35;;;62.90;;
57635;SDS011;43465;50.728;4.160;2023-05-14T08:27:00;111.90;;;62.10;;
57635;SDS011;43465;50.728;4.160;2023-05-14T08:29:26;104.90;;;62.15;;
57635;SDS011;43465;50.728;4.160;2023-05-14T08:31:52;106.65;;;61.08;;
57635;SDS011;43465;50.728;4.160;2023-05-14T08:34:17;105.47;;;60.35;;
57635;SDS011;43465;50.728;4.160;2023-05-14T08:36:43;92.82;;;55.65;;
57635;SDS011;43465;50.728;4.160;2023-05-14T08:39:08;93.25;;;56.58;;
57635;SDS011;43465;50.728;4.160;2023-05-14T08:41:34;83.82;;;52.22;;
57635;SDS011;43465;50.728;4.160;2023-05-14T08:46:29;82.35;;;52.85;;
57635;SDS011;43465;50.728;4.160;2023-05-14T08:48:59;73.38;;;48.95;;
57635;SDS011;43465;50.728;4.160;2023-05-14T08:53:55;66.60;;;47.15;;
57635;SDS011;43465;50.728;4.160;2023-05-14T08:56:26;68.57;;;46.17;;
57635;SDS011;43465;50.728;4.160;2023-05-14T08:58:52;71.28;;;46.10;;
57635;SDS011;43465;50.728;4.160;2023-05-14T09:01:18;70.88;;;46.15;;
57635;SDS011;43465;50.728;4.160;2023-05-14T09:03:44;69.53;;;47.42;;
57635;SDS011;43465;50.728;4.160;2023-05-14T09:06:11;73.22;;;47.85;;
57635;SDS011;43465;50.728;4.160;2023-05-14T09:08:39;66.20;;;44.85;;
57635;SDS011;43465;50.728;4.160;2023-05-14T09:11:05;67.13;;;44.97;;
57635;SDS011;43465;50.728;4.160;2023-05-14T09:13:30;66.70;;;44.63;;
57635;SDS011;43465;50.728;4.160;2023-05-14T09:15:56;62.25;;;44.30;;
57635;SDS011;43465;50.728;4.160;2023-05-14T09:18:23;64.05;;;46.45;;
57635;SDS011;43465;50.728;4.160;2023-05-14T09:20:49;66.28;;;45.13;;
57635;SDS011;43465;50.728;4.160;2023-05-14T09:23:16;66.40;;;45.60;;
57635;SDS011;43465;50.728;4.160;2023-05-14T09:25:41;64.60;;;44.95;;
57635;SDS011;43465;50.728;4.160;2023-05-14T09:28:07;59.50;;;42.55;;
57635;SDS011;43465;50.728;4.160;2023-05-14T09:30:33;63.97;;;43.33;;
57635;SDS011;43465;50.728;4.160;2023-05-14T09:33:01;58.67;;;43.50;;
57635;SDS011;43465;50.728;4.160;2023-05-14T09:35:27;56.92;;;42.05;;
57635;SDS011;43465;50.728;4.160;2023-05-14T09:37:54;52.25;;;40.20;;
57635;SDS011;43465;50.728;4.160;2023-05-14T09:40:20;58.78;;;42.38;;
57635;SDS011;43465;50.728;4.160;2023-05-14T09:42:47;52.38;;;39.80;;
57635;SDS011;43465;50.728;4.160;2023-05-14T09:45:14;53.53;;;40.60;;
57635;SDS011;43465;50.728;4.160;2023-05-14T09:47:40;54.33;;;40.80;;
57635;SDS011;43465;50.728;4.160;2023-05-14T09:50:06;55.25;;;41.70;;
57635;SDS011;43465;50.728;4.160;2023-05-14T09:52:33;55.83;;;40.10;;
57635;SDS011;43465;50.728;4.160;2023-05-14T09:54:59;45.30;;;38.17;;
57635;SDS011;43465;50.728;4.160;2023-05-14T09:57:26;48.60;;;39.42;;
57635;SDS011;43465;50.728;4.160;2023-05-14T09:59:52;46.20;;;37.55;;
57635;SDS011;43465;50.728;4.160;2023-05-14T10:02:29;49.28;;;37.53;;
57635;SDS011;43465;50.728;4.160;2023-05-14T10:05:01;51.83;;;38.40;;
57635;SDS011;43465;50.728;4.160;2023-05-14T10:07:30;47.70;;;39.63;;
57635;SDS011;43465;50.728;4.160;2023-05-14T10:10:01;50.63;;;40.45;;
57635;SDS011;43465;50.728;4.160;2023-05-14T10:12:31;51.38;;;40.85;;
57635;SDS011;43465;50.728;4.160;2023-05-14T10:15:02;51.28;;;41.35;;
57635;SDS011;43465;50.728;4.160;2023-05-14T10:17:31;47.78;;;38.60;;
57635;SDS011;43465;50.728;4.160;2023-05-14T10:20:00;47.55;;;37.08;;
57635;SDS011;43465;50.728;4.160;2023-05-14T10:22:32;47.45;;;34.83;;
57635;SDS011;43465;50.728;4.160;2023-05-14T10:24:59;49.15;;;36.17;;
57635;SDS011;43465;50.728;4.160;2023-05-14T10:27:25;46.17;;;35.85;;
57635;SDS011;43465;50.728;4.160;2023-05-14T10:29:52;44.47;;;36.17;;
57635;SDS011;43465;50.728;4.160;2023-05-14T10:32:19;40.58;;;34.63;;
57635;SDS011;43465;50.728;4.160;2023-05-14T10:34:50;45.47;;;34.78;;
57635;SDS011;43465;50.728;4.160;2023-05-14T10:37:21;65.50;;;45.17;;
57635;SDS011;43465;50.728;4.160;2023-05-14T10:39:53;62.55;;;44.25;;
57635;SDS011;43465;50.728;4.160;2023-05-14T10:42:37;62.90;;;46.80;;
57635;SDS011;43465;50.728;4.160;2023-05-14T10:45:08;70.53;;;47.42;;
57635;SDS011;43465;50.728;4.160;2023-05-14T10:47:36;65.72;;;47.15;;
57635;SDS011;43465;50.728;4.160;2023-05-14T10:50:04;59.92;;;44.22;;
57635;SDS011;43465;50.728;4.160;2023-05-14T10:52:31;69.63;;;48.47;;
57635;SDS011;43465;50.728;4.160;2023-05-14T10:54:59;66.32;;;48.28;;
57635;SDS011;43465;50.728;4.160;2023-05-14T10:57:27;69.18;;;47.45;;
57635;SDS011;43465;50.728;4.160;2023-05-14T10:59:55;66.22;;;46.20;;
57635;SDS011;43465;50.728;4.160;2023-05-14T11:02:25;64.55;;;46.75;;
57635;SDS011;43465;50.728;4.160;2023-05-14T11:07:38;70.00;;;47.58;;
57635;SDS011;43465;50.728;4.160;2023-05-14T11:10:14;65.15;;;46.30;;
57635;SDS011;43465;50.728;4.160;2023-05-14T11:12:49;59.33;;;43.53;;
57635;SDS011;43465;50.728;4.160;2023-05-14T11:15:16;64.40;;;48.38;;
57635;SDS011;43465;50.728;4.160;2023-05-14T11:17:44;66.00;;;46.90;;
57635;SDS011;43465;50.728;4.160;2023-05-14T11:20:11;65.35;;;47.05;;
57635;SDS011;43465;50.728;4.160;2023-05-14T11:22:38;61.08;;;44.03;;
57635;SDS011;43465;50.728;4.160;2023-05-14T11:25:05;71.80;;;47.88;;
57635;SDS011;43465;50.728;4.160;2023-05-14T11:27:33;66.72;;;48.45;;
57635;SDS011;43465;50.728;4.160;2023-05-14T11:30:00;69.85;;;49.80;;
57635;SDS011;43465;50.728;4.160;2023-05-14T11:32:26;69.32;;;48.92;;
57635;SDS011;43465;50.728;4.160;2023-05-14T11:34:52;70.80;;;49.30;;
57635;SDS011;43465;50.728;4.160;2023-05-14T11:37:18;70.32;;;49.45;;
57635;SDS011;43465;50.728;4.160;2023-05-14T11:39:48;61.83;;;45.58;;
57635;SDS011;43465;50.728;4.160;2023-05-14T11:42:15;57.00;;;43.90;;
57635;SDS011;43465;50.728;4.160;2023-05-14T11:44:43;52.63;;;40.35;;
57635;SDS011;43465;50.728;4.160;2023-05-14T11:47:13;55.58;;;40.30;;
57635;SDS011;43465;50.728;4.160;2023-05-14T11:49:39;57.75;;;43.53;;
57635;SDS011;43465;50.728;4.160;2023-05-14T11:52:06;56.78;;;42.53;;
57635;SDS011;43465;50.728;4.160;2023-05-14T11:54:38;58.10;;;42.10;;
57635;SDS011;43465;50.728;4.160;2023-05-14T11:57:08;51.22;;;39.83;;
57635;SDS011;43465;50.728;4.160;2023-05-14T11:59:55;55.63;;;41.80;;
57635;SDS011;43465;50.728;4.160;2023-05-14T12:02:21;56.85;;;43.30;;
57635;SDS011;43465;50.728;4.160;2023-05-14T12:04:50;58.72;;;42.67;;
57635;SDS011;43465;50.728;4.160;2023-05-14T12:07:17;45.97;;;36.75;;
57635;SDS011;43465;50.728;4.160;2023-05-14T12:09:47;55.85;;;40.65;;
57635;SDS011;43465;50.728;4.160;2023-05-14T12:12:14;54.50;;;37.35;;
57635;SDS011;43465;50.728;4.160;2023-05-14T12:14:42;51.40;;;40.22;;
57635;SDS011;43465;50.728;4.160;2023-05-14T12:17:21;52.65;;;41.25;;
57635;SDS011;43465;50.728;4.160;2023-05-14T12:19:48;48.40;;;38.60;;
57635;SDS011;43465;50.728;4.160;2023-05-14T12:22:21;43.30;;;35.85;;
57635;SDS011;43465;50.728;4.160;2023-05-14T12:24:53;41.58;;;34.97;;
57635;SDS011;43465;50.728;4.160;2023-05-14T12:27:21;41.42;;;32.60;;
57635;SDS011;43465;50.728;4.160;2023-05-14T12:29:48;55.28;;;39.03;;
57635;SDS011;43465;50.728;4.160;2023-05-14T12:32:17;49.20;;;36.33;;
57635;SDS011;43465;50.728;4.160;2023-05-14T12:34:44;53.28;;;39.13;;
57635;SDS011;43465;50.728;4.160;2023-05-14T12:37:09;46.40;;;34.63;;
57635;SDS011;43465;50.728;4.160;2023-05-14T12:39:35;41.17;;;32.55;;
57635;SDS011;43465;50.728;4.160;2023-05-14T12:42:01;39.50;;;32.88;;
57635;SDS011;43465;50.728;4.160;2023-05-14T12:44:26;50.35;;;36.38;;
57635;SDS011;43465;50.728;4.160;2023-05-14T12:46:52;52.72;;;40.50;;
57635;SDS011;43465;50.728;4.160;2023-05-14T12:49:18;45.28;;;34.20;;
57635;SDS011;43465;50.728;4.160;2023-05-14T12:51:44;41.03;;;33.10;;
57635;SDS011;43465;50.728;4.160;2023-05-14T12:54:10;41.10;;;33.15;;
57635;SDS011;43465;50.728;4.160;2023-05-14T12:56:37;38.05;;;32.50;;
57635;SDS011;43465;50.728;4.160;2023-05-14T12:59:03;44.22;;;32.88;;
57635;SDS011;43465;50.728;4.160;2023-05-14T13:01:28;37.35;;;29.30;;
57635;SDS011;43465;50.728;4.160;2023-05-14T13:03:54;35.95;;;27.98;;
57635;SDS011;43465;50.728;4.160;2023-05-14T13:06:20;33.25;;;27.95;;
57635;SDS011;43465;50.728;4.160;2023-05-14T13:08:46;44.17;;;32.50;;
57635;SDS011;43465;50.728;4.160;2023-05-14T13:11:12;46.35;;;32.95;;
57635;SDS011;43465;50.728;4.160;2023-05-14T13:13:38;43.65;;;33.22;;
57635;SDS011;43465;50.728;4.160;2023-05-14T13:16:04;46.85;;;33.33;;
57635;SDS011;43465;50.728;4.160;2023-05-14T13:18:30;47.92;;;35.78;;
57635;SDS011;43465;50.728;4.160;2023-05-14T13:20:56;48.05;;;35.08;;
57635;SDS011;43465;50.728;4.160;2023-05-14T13:23:21;50.25;;;36.20;;
57635;SDS011;43465;50.728;4.160;2023-05-14T13:25:47;52.67;;;36.30;;
57635;SDS011;43465;50.728;4.160;2023-05-14T13:28:13;44.13;;;33.08;;
57635;SDS011;43465;50.728;4.160;2023-05-14T13:30:39;33.42;;;26.55;;
57635;SDS011;43465;50.728;4.160;2023-05-14T13:33:04;26.63;;;23.58;;
57635;SDS011;43465;50.728;4.160;2023-05-14T13:35:30;28.13;;;24.42;;
57635;SDS011;43465;50.728;4.160;2023-05-14T13:37:56;26.83;;;23.02;;
57635;SDS011;43465;50.728;4.160;2023-05-14T13:40:22;28.30;;;23.23;;
57635;SDS011;43465;50.728;4.160;2023-05-14T13:42:48;26.42;;;22.55;;
57635;SDS011;43465;50.728;4.160;2023-05-14T13:45:13;27.40;;;22.88;;
57635;SDS011;43465;50.728;4.160;2023-05-14T13:47:39;25.70;;;23.05;;
57635;SDS011;43465;50.728;4.160;2023-05-14T13:50:05;30.77;;;22.40;;
57635;SDS011;43465;50.728;4.160;2023-05-14T13:52:31;31.02;;;25.55;;
57635;SDS011;43465;50.728;4.160;2023-05-14T13:54:56;29.92;;;24.17;;
57635;SDS011;43465;50.728;4.160;2023-05-14T13:57:22;24.52;;;21.13;;
57635;SDS011;43465;50.728;4.160;2023-05-14T13:59:48;25.90;;;21.88;;
57635;SDS011;43465;50.728;4.160;2023-05-14T14:02:13;25.25;;;22.33;;
57635;SDS011;43465;50.728;4.160;2023-05-14T14:04:39;24.20;;;19.15;;
57635;SDS011;43465;50.728;4.160;2023-05-14T14:07:05;27.85;;;20.05;;
57635;SDS011;43465;50.728;4.160;2023-05-14T14:09:31;25.02;;;18.67;;
57635;SDS011;43465;50.728;4.160;2023-05-14T14:12:02;22.50;;;18.95;;
57635;SDS011;43465;50.728;4.160;2023-05-14T14:14:28;28.77;;;21.80;;
57635;SDS011;43465;50.728;4.160;2023-05-14T14:16:53;31.42;;;21.45;;
57635;SDS011;43465;50.728;4.160;2023-05-14T14:19:19;23.27;;;18.65;;